Terminal Aerodrome Forecast
Issued by NWS

Home | Current Version | Previous Version | Text Only | Print | Product List | Glossary On
Versions: 1 2 3 4 5 6 7 8 9 10 11 12 13
744
FTUS45 KRIW 132339
TAFWRL
TAF
KWRL 132339Z 1400/1424 35013G21KT P6SM FEW090
     FM140130 VRB06KT P6SM FEW110 SCT200
     FM141000 VRB06KT P6SM SCT060 BKN090=

USA.gov is the U.S. government's official web portal to all federal, state and local government web resources and services.